Time;durP1;ratioP1;P1;durP2;ratioP2;P2;SDS_P1;SDS_P2;PMS_P1;PMS_P2;Temp;Humidity;BMP_temperature;BMP_pressure;BME280_temperature;BME280_humidity;BME280_pressure;Samples;Min_cycle;Max_cycle;Signal;HPM_P1;HPM_P2
2021/03/15 00:02:06;;;;;;;;;;;;;;;;;;5033773;28;19917;-77
2021/03/15 00:04:32;;;;;;;;;;;;;;;;;;5032535;28;20008;-76
2021/03/15 00:06:58;;;;;;;;;;;;;;;;;;5032525;28;19909;-78
2021/03/15 00:09:24;;;;;;;;;;;;;;;;;;5033887;28;20345;-76
2021/03/15 00:11:52;;;;;;;;;;;;;;;;;;5031720;28;20364;-76
2021/03/15 00:14:18;;;;;;;;;;;;;;;;;;5032730;28;20402;-77
2021/03/15 00:16:44;;;;;;;;;;;;;;;;;;5032980;28;19952;-75
2021/03/15 00:19:10;;;;;;;;;;;;;;;;;;5032610;28;19916;-77
2021/03/15 00:21:36;;;;;;;;;;;;;;;;;;5031338;28;19913;-76
2021/03/15 00:24:01;;;;;;;;;;;;;;;;;;5032297;28;19909;-76
2021/03/15 00:26:27;;;;;;;;;;;;;;;;;;5031379;28;20323;-76
2021/03/15 00:28:53;;;;;;;;;;;;;;;;;;5032258;28;19920;-76
2021/03/15 00:31:19;;;;;;;;;;;;;;;;;;5032359;28;19968;-76
2021/03/15 00:33:45;;;;;;;;;;;;;;;;;;5031328;28;19913;-76
2021/03/15 00:36:11;;;;;;;;;;;;;;;;;;5032486;28;20391;-76
2021/03/15 00:38:37;;;;;;;;;;;;;;;;;;5031366;28;19978;-76
2021/03/15 00:41:03;;;;;;;;;;;;;;;;;;5032900;28;19916;-76
2021/03/15 00:43:28;;;;;;;;;;;;;;;;;;5032846;28;19915;-75
2021/03/15 00:45:54;;;;;;;;;;;;;;;;;;5032372;28;19913;-75
2021/03/15 00:48:20;;;;;;;;;;;;;;;;;;5032712;28;19909;-76
2021/03/15 00:50:46;;;;;;;;;;;;;;;;;;5032311;28;19915;-76
2021/03/15 00:53:12;;;;;;;;;;;;;;;;;;5030992;28;20327;-75
2021/03/15 00:55:38;;;;;;;;;;;;;;;;;;5030846;28;19909;-76
2021/03/15 00:58:04;;;;;;;;;;;;;;;;;;5032378;28;20316;-75
2021/03/15 01:00:30;;;;;;;;;;;;;;;;;;5032342;28;19955;-75
2021/03/15 01:02:56;;;;;;;;;;;;;;;;;;5032476;28;19913;-76
2021/03/15 01:05:22;;;;;;;;;;;;;;;;;;5032035;28;20322;-76
2021/03/15 01:07:47;;;;;;;;;;;;;;;;;;5030864;28;19913;-75
2021/03/15 01:10:13;;;;;;;;;;;;;;;;;;5032491;28;20054;-75
2021/03/15 01:12:39;;;;;;;;;;;;;;;;;;5032392;28;19936;-76
2021/03/15 01:15:05;;;;;;;;;;;;;;;;;;5032028;28;19916;-76
2021/03/15 01:17:31;;;;;;;;;;;;;;;;;;5032095;28;19909;-76
2021/03/15 01:19:57;;;;;;;;;;;;;;;;;;5032193;28;19909;-74
2021/03/15 01:22:23;;;;;;;;;;;;;;;;;;5032375;28;19909;-76
2021/03/15 01:24:48;;;;;;;;;;;;;;;;;;5032527;28;20349;-76
2021/03/15 01:27:14;;;;;;;;;;;;;;;;;;5032838;28;20131;-76
2021/03/15 01:29:40;;;;;;;;;;;;;;;;;;5032065;28;19909;-75
2021/03/15 01:32:06;;;;;;;;;;;;;;;;;;5030652;28;20261;-76
2021/03/15 01:34:32;;;;;;;;;;;;;;;;;;5031706;28;19916;-76
2021/03/15 01:36:58;;;;;;;;;;;;;;;;;;5030578;28;19913;-76
2021/03/15 01:39:24;;;;;;;;;;;;;;;;;;5031439;28;19962;-76
2021/03/15 01:41:50;;;;;;;;;;;;;;;;;;5035639;28;20275;-76
2021/03/15 01:44:16;;;;;;;;;;;;;;;;;;5033911;28;19996;-77
2021/03/15 01:46:41;;;;;;;;;;;;;;;;;;5034270;28;19932;-76
2021/03/15 01:49:07;;;;;;;;;;;;;;;;;;5035293;28;19948;-76
2021/03/15 01:51:33;;;;;;;;;;;;;;;;;;5034066;28;19909;-77
2021/03/15 01:53:59;;;;;;;;;;;;;;;;;;5035293;28;20372;-77
2021/03/15 01:56:25;;;;;;;;;;;;;;;;;;5035445;28;19913;-76
2021/03/15 01:58:51;;;;;;;;;;;;;;;;;;5033842;28;19932;-77
2021/03/15 02:01:17;;;;;;;;;;;;;;;;;;5035370;28;19916;-77
2021/03/15 02:03:43;;;;;;;;;;;;;;;;;;5034115;28;19910;-76
2021/03/15 02:06:08;;;;;;;;;;;;;;;;;;5035081;28;19963;-77
2021/03/15 02:08:34;;;;;;;;;;;;;;;;;;5033917;28;19909;-75
2021/03/15 02:11:00;;;;;;;;;;;;;;;;;;5035144;28;20008;-75
2021/03/15 02:13:26;;;;;;;;;;;;;;;;;;5035069;28;19913;-76
2021/03/15 02:15:52;;;;;;;;;;;;;;;;;;5034795;28;19909;-76
2021/03/15 02:18:18;;;;;;;;;;;;;;;;;;5035956;28;20391;-77
2021/03/15 02:20:44;;;;;;;;;;;;;;;;;;5035145;28;20014;-76
2021/03/15 02:23:10;;;;;;;;;;;;;;;;;;5035038;28;19959;-76
2021/03/15 02:25:35;;;;;;;;;;;;;;;;;;5035347;28;19916;-77
2021/03/15 02:28:01;;;;;;;;;;;;;;;;;;5035036;28;20419;-75
2021/03/15 02:30:27;;;;;;;;;;;;;;;;;;5037235;28;19964;-77
2021/03/15 02:32:53;;;;;;;;;;;;;;;;;;5035459;28;20012;-76
2021/03/15 02:35:19;;;;;;;;;;;;;;;;;;5034951;28;20441;-76
2021/03/15 02:37:45;;;;;;;;;;;;;;;;;;5034473;28;20003;-76
2021/03/15 02:40:11;;;;;;;;;;;;;;;;;;5034345;28;19913;-76
2021/03/15 02:42:37;;;;;;;;;;;;;;;;;;5033177;28;19909;-76
2021/03/15 02:45:02;;;;;;;;;;;;;;;;;;5033006;28;19908;-76
2021/03/15 02:47:28;;;;;;;;;;;;;;;;;;5033444;28;19917;-77
2021/03/15 02:49:54;;;;;;;;;;;;;;;;;;5032902;28;20368;-77
2021/03/15 02:52:20;;;;;;;;;;;;;;;;;;5032999;28;19914;-76
2021/03/15 02:54:46;;;;;;;;;;;;;;;;;;5032777;28;19909;-76
2021/03/15 02:57:12;;;;;;;;;;;;;;;;;;5034167;28;20261;-76
2021/03/15 02:59:38;;;;;;;;;;;;;;;;;;5033893;28;20392;-76
2021/03/15 03:02:03;;;;;;;;;;;;;;;;;;5033901;28;19909;-77
2021/03/15 03:04:29;;;;;;;;;;;;;;;;;;5032419;28;19952;-75
2021/03/15 03:06:55;;;;;;;;;;;;;;;;;;5032644;28;20012;-76
2021/03/15 03:09:21;;;;;;;;;;;;;;;;;;5032636;28;20000;-76
2021/03/15 03:11:47;;;;;;;;;;;;;;;;;;5033936;28;19983;-77
2021/03/15 03:14:13;;;;;;;;;;;;;;;;;;5033515;28;20011;-76
2021/03/15 03:16:39;;;;;;;;;;;;;;;;;;5032753;28;19955;-76
2021/03/15 03:19:06;;;;;;;;;;;;;;;;;;5032246;28;19959;-76
2021/03/15 03:21:32;;;;;;;;;;;;;;;;;;5032430;28;19909;-76
2021/03/15 03:23:58;;;;;;;;;;;;;;;;;;5033513;28;20028;-77
2021/03/15 03:26:24;;;;;;;;;;;;;;;;;;5032335;28;19921;-77
2021/03/15 03:28:50;;;;;;;;;;;;;;;;;;5031967;28;20395;-76
2021/03/15 03:31:17;;;;;;;;;;;;;;;;;;5032151;28;19917;-77
2021/03/15 03:33:43;;;;;;;;;;;;;;;;;;5033503;28;19913;-75
2021/03/15 03:36:08;;;;;;;;;;;;;;;;;;5031903;28;19909;-76
2021/03/15 03:38:34;;;;;;;;;;;;;;;;;;5033314;28;19960;-76
2021/03/15 03:41:00;;;;;;;;;;;;;;;;;;5033271;28;19909;-75
2021/03/15 03:43:26;;;;;;;;;;;;;;;;;;5033223;28;19948;-76
2021/03/15 03:45:52;;;;;;;;;;;;;;;;;;5031805;28;20288;-77
2021/03/15 03:48:18;;;;;;;;;;;;;;;;;;5031825;28;19910;-76
2021/03/15 03:50:44;;;;;;;;;;;;;;;;;;5033159;28;20403;-77
2021/03/15 03:53:10;;;;;;;;;;;;;;;;;;5033092;28;19913;-79
2021/03/15 03:55:36;;;;;;;;;;;;;;;;;;5031669;28;20411;-76
2021/03/15 03:58:01;;;;;;;;;;;;;;;;;;5032932;28;19909;-76
2021/03/15 04:00:27;;;;;;;;;;;;;;;;;;5032793;28;20435;-76
2021/03/15 04:02:53;;;;;;;;;;;;;;;;;;5032526;28;19916;-77
2021/03/15 04:05:19;;;;;;;;;;;;;;;;;;5032723;28;19999;-76
2021/03/15 04:07:45;;;;;;;;;;;;;;;;;;5033185;28;19999;-76
2021/03/15 04:10:11;;;;;;;;;;;;;;;;;;5032914;28;19916;-76
2021/03/15 04:12:37;;;;;;;;;;;;;;;;;;5032856;28;20253;-76
2021/03/15 04:15:02;;;;;;;;;;;;;;;;;;5031515;28;19963;-76
2021/03/15 04:17:28;;;;;;;;;;;;;;;;;;5031654;28;19916;-76
2021/03/15 04:19:54;;;;;;;;;;;;;;;;;;5031539;28;20418;-75
2021/03/15 04:22:20;;;;;;;;;;;;;;;;;;5033068;28;19910;-75
2021/03/15 04:24:46;;;;;;;;;;;;;;;;;;5031523;28;19997;-76
2021/03/15 04:27:12;;;;;;;;;;;;;;;;;;5032999;28;19910;-76
2021/03/15 04:29:38;;;;;;;;;;;;;;;;;;5032002;28;20364;-76
2021/03/15 04:32:03;;;;;;;;;;;;;;;;;;5031329;28;20330;-76
2021/03/15 04:34:29;;;;;;;;;;;;;;;;;;5031237;28;19909;-76
2021/03/15 04:36:55;;;;;;;;;;;;;;;;;;5031320;28;19917;-77
2021/03/15 04:39:21;;;;;;;;;;;;;;;;;;5032324;28;19910;-77
2021/03/15 04:41:47;;;;;;;;;;;;;;;;;;5032451;28;19914;-76
2021/03/15 04:44:13;;;;;;;;;;;;;;;;;;5032222;28;19961;-76
2021/03/15 04:46:39;;;;;;;;;;;;;;;;;;5032228;28;19909;-76
2021/03/15 04:49:07;;;;;;;;;;;;;;;;;;5032241;28;19909;-76
2021/03/15 04:51:33;;;;;;;;;;;;;;;;;;5031167;28;20326;-77
2021/03/15 04:53:59;;;;;;;;;;;;;;;;;;5032032;28;19913;-76
2021/03/15 04:56:24;;;;;;;;;;;;;;;;;;5032363;28;20295;-76
2021/03/15 04:58:50;;;;;;;;;;;;;;;;;;5032065;28;19909;-76
2021/03/15 05:01:16;;;;;;;;;;;;;;;;;;5032292;28;19920;-76
2021/03/15 05:03:42;;;;;;;;;;;;;;;;;;5032136;28;19980;-77
2021/03/15 05:06:08;;;;;;;;;;;;;;;;;;5031045;28;19909;-77
2021/03/15 05:08:34;;;;;;;;;;;;;;;;;;5030787;28;19913;-76
2021/03/15 05:11:00;;;;;;;;;;;;;;;;;;5032144;28;19909;-77
2021/03/15 05:13:26;;;;;;;;;;;;;;;;;;5030596;28;19917;-76
2021/03/15 05:15:52;;;;;;;;;;;;;;;;;;5035038;28;20265;-76
2021/03/15 05:18:18;;;;;;;;;;;;;;;;;;5035830;28;19995;-76
2021/03/15 05:20:44;;;;;;;;;;;;;;;;;;5035925;28;19909;-77
2021/03/15 05:23:09;;;;;;;;;;;;;;;;;;5034676;28;20387;-77
2021/03/15 05:25:35;;;;;;;;;;;;;;;;;;5034657;28;20027;-76
2021/03/15 05:28:01;;;;;;;;;;;;;;;;;;5034479;28;19909;-77
2021/03/15 05:30:27;;;;;;;;;;;;;;;;;;5035954;28;19909;-76
2021/03/15 05:32:53;;;;;;;;;;;;;;;;;;5036248;28;19917;-76
2021/03/15 05:35:19;;;;;;;;;;;;;;;;;;5035495;28;19911;-76
2021/03/15 05:37:45;;;;;;;;;;;;;;;;;;5034438;28;20358;-75
2021/03/15 05:40:11;;;;;;;;;;;;;;;;;;5035076;28;20368;-75
2021/03/15 05:42:37;;;;;;;;;;;;;;;;;;5036100;28;20356;-76
2021/03/15 05:45:03;;;;;;;;;;;;;;;;;;5035648;28;19905;-76
2021/03/15 05:47:29;;;;;;;;;;;;;;;;;;5035530;28;19905;-76
2021/03/15 05:49:54;;;;;;;;;;;;;;;;;;5033146;28;20008;-76
2021/03/15 05:52:20;;;;;;;;;;;;;;;;;;5032885;28;20418;-76
2021/03/15 05:54:46;;;;;;;;;;;;;;;;;;5034318;28;19952;-76
2021/03/15 05:57:12;;;;;;;;;;;;;;;;;;5035018;28;19976;-76
2021/03/15 05:59:38;;;;;;;;;;;;;;;;;;5032858;28;19924;-75
2021/03/15 06:02:04;;;;;;;;;;;;;;;;;;5034631;28;20514;-77
2021/03/15 06:04:30;;;;;;;;;;;;;;;;;;5034098;28;19948;-75
2021/03/15 06:06:56;;;;;;;;;;;;;;;;;;5033372;28;19905;-77
2021/03/15 06:09:22;;;;;;;;;;;;;;;;;;5035458;28;19955;-77
2021/03/15 06:11:48;;;;;;;;;;;;;;;;;;5034338;28;20245;-77
2021/03/15 06:14:14;;;;;;;;;;;;;;;;;;5034679;28;20348;-76
2021/03/15 06:16:39;;;;;;;;;;;;;;;;;;5033557;28;19905;-77
2021/03/15 06:19:05;;;;;;;;;;;;;;;;;;5033367;28;19995;-77
2021/03/15 06:21:31;;;;;;;;;;;;;;;;;;5035649;28;20355;-77
2021/03/15 06:23:57;;;;;;;;;;;;;;;;;;5033455;28;19957;-77
2021/03/15 06:26:23;;;;;;;;;;;;;;;;;;5033491;28;19905;-76
2021/03/15 06:28:49;;;;;;;;;;;;;;;;;;5034555;28;20311;-75
2021/03/15 06:31:14;;;;;;;;;;;;;;;;;;5034653;28;19964;-77
2021/03/15 06:33:40;;;;;;;;;;;;;;;;;;5034680;28;19970;-77
2021/03/15 06:36:06;;;;;;;;;;;;;;;;;;5033922;28;19949;-78
2021/03/15 06:38:32;;;;;;;;;;;;;;;;;;5034500;28;19905;-78
2021/03/15 06:40:58;;;;;;;;;;;;;;;;;;5033277;28;19967;-78
2021/03/15 06:43:24;;;;;;;;;;;;;;;;;;5034207;28;19909;-77
2021/03/15 06:45:50;;;;;;;;;;;;;;;;;;5038008;28;19905;-84
2021/03/15 06:48:16;;;;;;;;;;;;;;;;;;5036046;28;19948;-77
2021/03/15 06:50:42;;;;;;;;;;;;;;;;;;5034112;28;20275;-78
2021/03/15 06:53:08;;;;;;;;;;;;;;;;;;5035799;28;19909;-78
2021/03/15 06:55:33;;;;;;;;;;;;;;;;;;5034405;28;19912;-77
2021/03/15 06:57:59;;;;;;;;;;;;;;;;;;5034809;28;19996;-77
2021/03/15 07:00:25;;;;;;;;;;;;;;;;;;5034489;28;20123;-77
2021/03/15 07:02:51;;;;;;;;;;;;;;;;;;5033743;28;19975;-78
2021/03/15 07:05:17;;;;;;;;;;;;;;;;;;5033681;28;19912;-79
2021/03/15 07:07:43;;;;;;;;;;;;;;;;;;5032603;28;19912;-78
2021/03/15 07:10:08;;;;;;;;;;;;;;;;;;5034313;28;20388;-77
2021/03/15 07:12:34;;;;;;;;;;;;;;;;;;5034679;28;24079;-77
2021/03/15 07:15:00;;;;;;;;;;;;;;;;;;5033986;28;19988;-78
2021/03/15 07:17:26;;;;;;;;;;;;;;;;;;5037724;28;24138;-76
2021/03/15 07:19:52;;;;;;;;;;;;;;;;;;5041309;28;19982;-76
2021/03/15 07:22:18;;;;;;;;;;;;;;;;;;5042157;28;20503;-78
2021/03/15 07:24:44;;;;;;;1.77;0.50;;;;;;;;;;5044428;28;19905;-77
2021/03/15 07:27:10;;;;;;;;;;;;;;;;;;5041408;28;20488;-78
2021/03/15 07:29:36;;;;;;;0.35;0.35;;;;;;;;;;5042309;28;19905;-77
2021/03/15 07:32:02;;;;;;;1.55;0.70;;;;;;;;;;5044206;28;20068;-77
2021/03/15 07:34:28;;;;;;;0.55;0.40;;;;;;;;;;5046290;28;20033;-79
2021/03/15 07:36:55;;;;;;;1.00;0.68;;;;;;;;;;5044840;28;20071;-77
2021/03/15 07:39:22;;;;;;;0.40;0.40;;;;;;;;;;5047370;28;20025;-77
2021/03/15 07:41:49;;;;;;;0.52;0.52;;;;;;;;;;5043991;28;20104;-79
2021/03/15 07:44:15;;;;;;;;;;;;;;;;;;5048444;28;20031;-77
2021/03/15 07:46:42;;;;;;;0.43;0.37;;;;;;;;;;5054217;28;19908;-80
2021/03/15 07:49:20;;;;;;;0.38;0.20;;;;;;;;;;5046053;28;20036;-77
2021/03/15 07:51:51;;;;;;;0.63;0.40;;;;;;;;;;5046436;28;20067;-77
2021/03/15 07:54:22;;;;;;;0.65;0.55;;;;;;;;;;5037251;28;20024;-78
2021/03/15 07:56:48;;;;;;;0.40;0.32;;;;;;;;;;5035209;28;20068;-78
2021/03/15 07:59:14;;;;;;;0.23;0.23;;;;;;;;;;5036399;28;19909;-77
2021/03/15 08:01:42;;;;;;;0.40;0.40;;;;;;;;;;5036060;28;20473;-77
2021/03/15 08:04:08;;;;;;;0.63;0.63;;;;;;;;;;5035178;28;20029;-77
2021/03/15 08:06:34;;;;;;;0.30;0.30;;;;;;;;;;5036821;28;20051;-77
2021/03/15 08:09:00;;;;;;;0.70;0.30;;;;;;;;;;5038592;28;20298;-77
2021/03/15 08:11:26;;;;;;;0.43;0.40;;;;;;;;;;5036227;28;20025;-77
2021/03/15 08:13:56;;;;;;;0.60;0.40;;;;;;;;;;5046429;28;20057;-78
2021/03/15 08:16:22;;;;;;;0.60;0.50;;;;;;;;;;5044869;28;20017;-77
2021/03/15 08:18:49;;;;;;;0.85;0.30;;;;;;;;;;5044699;28;20027;-78
2021/03/15 08:21:26;;;;;;;0.30;0.30;;;;;;;;;;5046502;28;20025;-77
2021/03/15 08:23:53;;;;;;;0.63;0.30;;;;;;;;;;5047197;28;20049;-76
2021/03/15 08:26:19;;;;;;;2.38;1.02;;;;;;;;;;5047141;28;20440;-79
2021/03/15 08:28:45;;;;;;;1.00;0.60;;;;;;;;;;5049328;28;20040;-78
2021/03/15 08:31:20;;;;;;;1.75;1.15;;;;;;;;;;5046102;28;20511;-76
2021/03/15 08:33:47;;;;;;;0.52;0.52;;;;;;;;;;5046192;28;20048;-76
2021/03/15 08:36:13;;;;;;;0.40;0.30;;;;;;;;;;5036984;28;20093;-77
2021/03/15 08:38:39;;;;;;;0.40;0.30;;;;;;;;;;5035879;28;20018;-77
2021/03/15 08:41:06;;;;;;;0.30;0.30;;;;;;;;;;5036321;28;19909;-79
2021/03/15 08:43:40;;;;;;;1.00;0.50;;;;;;;;;;5038563;28;19909;-77
2021/03/15 08:46:09;;;;;;;0.57;0.45;;;;;;;;;;5035319;28;20033;-78
2021/03/15 08:48:37;;;;;;;0.88;0.52;;;;;;;;;;5035860;28;20076;-77
2021/03/15 08:51:13;;;;;;;1.13;0.65;;;;;;;;;;5040547;28;19909;-78
2021/03/15 08:53:40;;;;;;;1.02;0.80;;;;;;;;;;5038738;28;20012;-77
2021/03/15 08:56:32;;;;;;;0.70;0.50;;;;;;;;;;5036546;28;19939;-78
2021/03/15 08:59:01;;;;;;;0.80;0.63;;;;;;;;;;5037940;28;20064;-77
2021/03/15 09:01:28;;;;;;;0.50;0.30;;;;;;;;;;5038402;28;19909;-78
2021/03/15 09:03:55;;;;;;;1.60;1.23;;;;;;;;;;5039327;28;20004;-77
2021/03/15 09:06:33;;;;;;;0.45;0.45;;;;;;;;;;5039566;28;20030;-77
2021/03/15 09:09:00;;;;;;;1.30;0.80;;;;;;;;;;5038053;28;19905;-77
2021/03/15 09:11:49;;;;;;;1.23;0.70;;;;;;;;;;5039771;28;19916;-77
2021/03/15 09:16:45;;;;;;;1.33;0.60;;;;;;;;;;5041911;28;19916;-76
2021/03/15 09:19:27;;;;;;;0.95;0.65;;;;;;;;;;5041094;28;20055;-77
2021/03/15 09:21:54;;;;;;;;;;;;;;;;;;5045498;28;19972;-79
2021/03/15 09:24:35;;;;;;;0.95;0.63;;;;;;;;;;5044046;28;20034;-78
2021/03/15 09:27:02;;;;;;;2.15;0.60;;;;;;;;;;5037490;28;20026;-78
2021/03/15 09:29:30;;;;;;;;;;;;;;;;;;5038627;28;20336;-78
2021/03/15 09:32:03;;;;;;;1.83;0.90;;;;;;;;;;5037567;28;19951;-78
2021/03/15 09:34:29;;;;;;;1.98;1.15;;;;;;;;;;5036824;28;20034;-78
2021/03/15 09:36:56;;;;;;;2.33;1.30;;;;;;;;;;5036985;28;20407;-79
2021/03/15 09:39:23;;;;;;;0.93;0.85;;;;;;;;;;5037631;28;19959;-77
2021/03/15 09:41:49;;;;;;;1.10;0.82;;;;;;;;;;5037992;28;20008;-79
2021/03/15 09:44:21;;;;;;;1.02;0.90;;;;;;;;;;5039021;28;20388;-78
2021/03/15 09:46:47;;;;;;;;;;;;;;;;;;5036538;28;20036;-79
2021/03/15 09:49:30;;;;;;;1.30;1.00;;;;;;;;;;5038482;28;20046;-79
2021/03/15 09:52:08;;;;;;;1.30;0.90;;;;;;;;;;5037210;28;19905;-78
2021/03/15 09:54:41;;;;;;;1.40;0.68;;;;;;;;;;5036902;28;20411;-79
2021/03/15 09:57:07;;;;;;;1.25;0.68;;;;;;;;;;5036539;28;20049;-78
2021/03/15 09:59:32;;;;;;;0.45;0.45;;;;;;;;;;5035287;28;19917;-77
2021/03/15 10:01:58;;;;;;;0.20;0.20;;;;;;;;;;5035991;28;20368;-78
2021/03/15 10:04:33;;;;;;;0.43;0.20;;;;;;;;;;5036008;28;20051;-78
2021/03/15 10:06:59;;;;;;;0.32;0.20;;;;;;;;;;5035215;28;20028;-77
2021/03/15 10:09:25;;;;;;;0.38;0.20;;;;;;;;;;5034064;28;20112;-77
2021/03/15 10:11:51;;;;;;;0.75;0.30;;;;;;;;;;5035461;28;20021;-77
2021/03/15 10:14:17;;;;;;;0.20;0.20;;;;;;;;;;5035112;28;20064;-78
2021/03/15 10:16:57;;;;;;;0.60;0.45;;;;;;;;;;5034245;28;20028;-77
2021/03/15 10:19:24;;;;;;;0.17;0.15;;;;;;;;;;5035645;28;20025;-79
2021/03/15 10:21:50;;;;;;;0.20;0.20;;;;;;;;;;5035505;28;20028;-78
2021/03/15 10:24:30;;;;;;;0.10;0.10;;;;;;;;;;5034686;28;20033;-79
2021/03/15 10:26:56;;;;;;;0.52;0.10;;;;;;;;;;5035180;28;20022;-78
2021/03/15 10:29:22;;;;;;;0.13;0.10;;;;;;;;;;5036101;28;20036;-79
2021/03/15 10:31:48;;;;;;;0.10;0.10;;;;;;;;;;5035236;28;20489;-78
2021/03/15 10:34:14;;;;;;;0.30;0.20;;;;;;;;;;5035270;28;20070;-78
2021/03/15 10:36:42;;;;;;;0.32;0.32;;;;;;;;;;5045046;28;20003;-79
2021/03/15 10:39:08;;;;;;;0.10;0.10;;;;;;;;;;5055098;28;19915;-77
2021/03/15 10:41:34;;;;;;;0.40;0.32;;;;;;;;;;5054212;28;19909;-77
2021/03/15 10:44:01;;;;;;;0.85;0.45;;;;;;;;;;5055551;28;20004;-78
2021/03/15 10:46:29;;;;;;;0.32;0.32;;;;;;;;;;5055017;28;19909;-78
2021/03/15 10:48:56;;;;;;;0.35;0.30;;;;;;;;;;5055451;28;19920;-78
2021/03/15 10:51:22;;;;;;;0.83;0.70;;;;;;;;;;5053957;28;19912;-77
2021/03/15 10:53:51;;;;;;;2.20;0.70;;;;;;;;;;5055766;28;19913;-78
2021/03/15 10:56:17;;;;;;;;;;;;;;;;;;5055049;28;19962;-78
2021/03/15 10:58:43;;;;;;;;;;;;;;;;;;5058873;28;20021;-78
2021/03/15 11:01:09;;;;;;;;;;;;;;;;;;5061947;28;19905;-78
2021/03/15 11:03:35;;;;;;;;;;;;;;;;;;5057222;28;19909;-79
2021/03/15 11:06:07;;;;;;;1.33;0.73;;;;;;;;;;5057337;28;20491;-79
2021/03/15 11:08:33;;;;;;;;;;;;;;;;;;5055898;28;20447;-78
2021/03/15 11:10:59;;;;;;;;;;;;;;;;;;5056127;28;20051;-76
2021/03/15 11:13:26;;;;;;;;;;;;;;;;;;5053123;28;19913;-78
2021/03/15 11:15:52;;;;;;;1.80;1.10;;;;;;;;;;5053883;28;20491;-77
2021/03/15 11:18:21;;;;;;;1.23;0.82;;;;;;;;;;5052730;28;19909;-77
2021/03/15 11:20:47;;;;;;;;;;;;;;;;;;5051599;28;19904;-76
2021/03/15 11:23:13;;;;;;;;;;;;;;;;;;5051832;28;19905;-76
2021/03/15 11:25:39;;;;;;;1.15;1.05;;;;;;;;;;5052832;28;20068;-76
2021/03/15 11:28:10;;;;;;;3.25;0.95;;;;;;;;;;5052804;28;20115;-76
2021/03/15 11:30:36;;;;;;;;;;;;;;;;;;5051499;28;19905;-76
2021/03/15 11:33:02;;;;;;;;;;;;;;;;;;5042535;28;20028;-76
2021/03/15 11:35:28;;;;;;;;;;;;;;;;;;5043592;28;20052;-77
2021/03/15 11:37:54;;;;;;;;;;;;;;;;;;5041289;28;20471;-76
2021/03/15 11:40:20;;;;;;;;;;;;;;;;;;5041839;28;20037;-75
2021/03/15 11:42:46;;;;;;;;;;;;;;;;;;5040942;28;20284;-76
2021/03/15 11:45:12;;;;;;;;;;;;;;;;;;5040572;28;19915;-77
2021/03/15 11:47:38;;;;;;;;;;;;;;;;;;5041801;28;20439;-76
2021/03/15 11:50:04;;;;;;;;;;;;;;;;;;5040704;28;19959;-77
2021/03/15 11:52:31;;;;;;;;;;;;;;;;;;5043468;28;20417;-77
2021/03/15 11:54:57;;;;;;;;;;;;;;;;;;5041872;28;20286;-78
2021/03/15 11:57:23;;;;;;;;;;;;;;;;;;5042926;28;19991;-78
2021/03/15 11:59:48;;;;;;;;;;;;;;;;;;5040372;28;20378;-76
2021/03/15 12:02:14;;;;;;;;;;;;;;;;;;5040413;28;19959;-76
2021/03/15 12:04:41;;;;;;;;;;;;;;;;;;5037568;28;20040;-77
2021/03/15 12:07:07;;;;;;;;;;;;;;;;;;5042151;28;19928;-78
2021/03/15 12:09:33;;;;;;;1.35;1.25;;;;;;;;;;5043810;28;20265;-78
2021/03/15 12:11:59;;;;;;;0.40;0.40;;;;;;;;;;5040634;28;20064;-77
2021/03/15 12:14:24;;;;;;;;;;;;;;;;;;5041948;28;20007;-77
2021/03/15 12:16:50;;;;;;;;;;;;;;;;;;5041147;28;20287;-77
2021/03/15 12:19:16;;;;;;;;;;;;;;;;;;5032252;28;19905;-76
2021/03/15 12:21:42;;;;;;;;;;;;;;;;;;5035369;28;19916;-75
2021/03/15 12:24:08;;;;;;;;;;;;;;;;;;5031736;28;19913;-77
2021/03/15 12:26:35;;;;;;;;;;;;;;;;;;5035436;28;19913;-76
2021/03/15 12:29:00;;;;;;;;;;;;;;;;;;5040805;28;19912;-76
2021/03/15 12:31:26;;;;;;;;;;;;;;;;;;5040207;28;19921;-75
2021/03/15 12:33:53;;;;;;;;;;;;;;;;;;5032896;28;22611;-77
2021/03/15 12:36:19;;;;;;;;;;;;;;;;;;5032620;28;24100;-77
2021/03/15 12:38:45;;;;;;;1.33;1.23;;;;;;;;;;5033912;28;20044;-78
2021/03/15 12:41:11;;;;;;;;;;;;;;;;;;5032487;28;20498;-80
2021/03/15 12:43:37;;;;;;;;;;;;;;;;;;5032691;28;19904;-80
2021/03/15 12:46:03;;;;;;;;;;;;;;;;;;5031272;28;20284;-77
2021/03/15 12:48:29;;;;;;;;;;;;;;;;;;5043059;28;20000;-76
2021/03/15 12:50:55;;;;;;;;;;;;;;;;;;5033372;28;19912;-79
2021/03/15 12:53:21;;;;;;;;;;;;;;;;;;5037152;28;25125;-78
2021/03/15 12:55:46;;;;;;;;;;;;;;;;;;5053944;28;19904;-77
2021/03/15 12:58:12;;;;;;;;;;;;;;;;;;5052135;28;20348;-79
2021/03/15 13:00:38;;;;;;;;;;;;;;;;;;5054419;28;19999;-78
2021/03/15 13:03:04;;;;;;;;;;;;;;;;;;5051823;28;19905;-76
2021/03/15 13:05:31;;;;;;;;;;;;;;;;;;5048377;28;20352;-78
2021/03/15 13:07:57;;;;;;;;;;;;;;;;;;5031748;28;20022;-78
2021/03/15 13:10:23;;;;;;;;;;;;;;;;;;5030917;28;20375;-77
2021/03/15 13:12:49;;;;;;;;;;;;;;;;;;5031643;28;20045;-77
2021/03/15 13:15:14;;;;;;;;;;;;;;;;;;5035085;28;20587;-75
2021/03/15 13:17:40;;;;;;;;;;;;;;;;;;5051408;28;20000;-80
2021/03/15 13:20:06;;;;;;;;;;;;;;;;;;5053036;28;20306;-78
2021/03/15 13:22:33;;;;;;;;;;;;;;;;;;5051771;28;20271;-78
2021/03/15 13:24:59;;;;;;;;;;;;;;;;;;5051344;28;19954;-79
2021/03/15 13:27:25;;;;;;;;;;;;;;;;;;5052795;28;19909;-78
2021/03/15 13:29:51;;;;;;;;;;;;;;;;;;5052698;28;19907;-78
2021/03/15 13:32:16;;;;;;;;;;;;;;;;;;5053852;28;19916;-79
2021/03/15 13:34:42;;;;;;;;;;;;;;;;;;5051198;28;19979;-78
2021/03/15 13:37:08;;;;;;;;;;;;;;;;;;5055898;28;19911;-78
2021/03/15 13:39:34;;;;;;;;;;;;;;;;;;5055385;28;20430;-77
2021/03/15 13:42:00;;;;;;;;;;;;;;;;;;5051154;28;19912;-78
2021/03/15 13:44:26;;;;;;;;;;;;;;;;;;5036728;28;19905;-77
2021/03/15 13:46:52;;;;;;;;;;;;;;;;;;5035244;28;19952;-77
2021/03/15 13:49:17;;;;;;;;;;;;;;;;;;5035265;28;19966;-78
2021/03/15 13:51:43;;;;;;;;;;;;;;;;;;5035517;28;19952;-78
2021/03/15 13:54:09;;;;;;;;;;;;;;;;;;5035198;28;19909;-79
2021/03/15 13:56:35;;;;;;;;;;;;;;;;;;5034489;28;19916;-78
2021/03/15 13:59:01;;;;;;;;;;;;;;;;;;5034621;28;20304;-77
2021/03/15 14:01:27;;;;;;;;;;;;;;;;;;5035109;28;19927;-78
2021/03/15 14:03:53;;;;;;;;;;;;;;;;;;5034963;28;19904;-78
2021/03/15 14:06:19;;;;;;;;;;;;;;;;;;5034822;28;20133;-78
2021/03/15 14:08:44;;;;;;;;;;;;;;;;;;5034853;28;19912;-78
2021/03/15 14:11:10;;;;;;;;;;;;;;;;;;5035020;28;19905;-78
2021/03/15 14:13:36;;;;;;;;;;;;;;;;;;5035916;28;20379;-78
2021/03/15 14:16:03;;;;;;;;;;;;;;;;;;5034745;28;19996;-78
2021/03/15 14:18:29;;;;;;;;;;;;;;;;;;5036353;28;19994;-77
2021/03/15 14:20:55;;;;;;;;;;;;;;;;;;5035217;28;19912;-77
2021/03/15 14:23:21;;;;;;;;;;;;;;;;;;5037214;28;19916;-77
2021/03/15 14:25:47;;;;;;;;;;;;;;;;;;5034548;28;20328;-77
2021/03/15 14:28:13;;;;;;;;;;;;;;;;;;5041769;28;20000;-78
2021/03/15 14:30:39;;;;;;;;;;;;;;;;;;5052204;28;19904;-78
2021/03/15 14:33:04;;;;;;;;;;;;;;;;;;5054354;28;19912;-77
2021/03/15 14:35:30;;;;;;;;;;;;;;;;;;5054199;28;19904;-77
2021/03/15 14:37:56;;;;;;;;;;;;;;;;;;5054400;28;20288;-77
2021/03/15 14:40:22;;;;;;;;;;;;;;;;;;5054143;28;19905;-77
2021/03/15 14:42:48;;;;;;;;;;;;;;;;;;5044602;28;19928;-76
2021/03/15 14:45:14;;;;;;;;;;;;;;;;;;5033968;28;19905;-77
2021/03/15 14:47:40;;;;;;;;;;;;;;;;;;5033893;28;19918;-78
2021/03/15 14:50:06;;;;;;;;;;;;;;;;;;5034189;28;19909;-77
2021/03/15 14:52:31;;;;;;;;;;;;;;;;;;5034314;28;19909;-78
2021/03/15 14:54:57;;;;;;;;;;;;;;;;;;5033272;28;19911;-77
2021/03/15 14:57:23;;;;;;;;;;;;;;;;;;5034971;28;19909;-77
2021/03/15 14:59:49;;;;;;;;;;;;;;;;;;5033553;28;20003;-77
2021/03/15 15:02:15;;;;;;;;;;;;;;;;;;5033599;28;20110;-77
2021/03/15 15:04:41;;;;;;;;;;;;;;;;;;5033851;28;19940;-77
2021/03/15 15:07:07;;;;;;;;;;;;;;;;;;5034067;28;19905;-76
2021/03/15 15:09:32;;;;;;;;;;;;;;;;;;5034175;28;19913;-76
2021/03/15 15:11:58;;;;;;;;;;;;;;;;;;5035888;28;19963;-78
2021/03/15 15:14:27;;;;;;;;;;;;;;;;;;5036669;28;19905;-77
2021/03/15 15:16:53;;;;;;;;;;;;;;;;;;5033799;28;19905;-77
2021/03/15 15:19:19;;;;;;;;;;;;;;;;;;5033816;28;19905;-77
2021/03/15 15:21:45;;;;;;;;;;;;;;;;;;5033388;28;20365;-76
2021/03/15 15:24:11;;;;;;;;;;;;;;;;;;5032956;28;19909;-77
2021/03/15 15:26:37;;;;;;;;;;;;;;;;;;5033329;28;20032;-77
2021/03/15 15:29:03;;;;;;;;;;;;;;;;;;5033287;28;20008;-78
2021/03/15 15:31:28;;;;;;;;;;;;;;;;;;5034628;28;19915;-80
2021/03/15 15:33:54;;;;;;;;;;;;;;;;;;5034292;28;19908;-80
2021/03/15 15:36:20;;;;;;;;;;;;;;;;;;5033254;28;19936;-79
2021/03/15 15:38:46;;;;;;;;;;;;;;;;;;5033357;28;20382;-78
2021/03/15 15:41:12;;;;;;;;;;;;;;;;;;5033490;28;19911;-79
2021/03/15 15:43:38;;;;;;;;;;;;;;;;;;5033704;28;19941;-78
2021/03/15 15:46:04;;;;;;;;;;;;;;;;;;5032321;28;19912;-78
2021/03/15 15:48:30;;;;;;;;;;;;;;;;;;5032596;28;20421;-78
2021/03/15 15:50:56;;;;;;;;;;;;;;;;;;5034628;28;19909;-79
2021/03/15 15:53:22;;;;;;;;;;;;;;;;;;5032940;28;19909;-78
2021/03/15 15:55:48;;;;;;;;;;;;;;;;;;5051995;28;19908;-77
2021/03/15 15:58:13;;;;;;;;;;;;;;;;;;5050785;28;19911;-76
2021/03/15 16:00:39;;;;;;;;;;;;;;;;;;5053305;28;20352;-78
2021/03/15 16:03:05;;;;;;;;;;;;;;;;;;5054231;28;19955;-78
2021/03/15 16:05:33;;;;;;;;;;;;;;;;;;5053097;28;19962;-77
2021/03/15 16:07:59;;;;;;;;;;;;;;;;;;5052680;28;19959;-77
2021/03/15 16:10:25;;;;;;;;;;;;;;;;;;5053131;28;19904;-78
2021/03/15 16:12:51;;;;;;;;;;;;;;;;;;5054385;28;19916;-80
2021/03/15 16:15:16;;;;;;;;;;;;;;;;;;5053222;28;19904;-78